createdAt,value
2022-12-28T00:01:48.187Z,12.78
2022-12-28T00:04:15.717Z,12.86
2022-12-28T00:06:42.813Z,12.91
2022-12-28T00:09:13.183Z,12.86
2022-12-28T00:11:40.281Z,12.88
2022-12-28T00:14:07.346Z,12.96
2022-12-28T00:16:39.486Z,12.97
2022-12-28T00:19:10.951Z,12.94
2022-12-28T00:21:37.849Z,13.00
2022-12-28T00:24:05.428Z,13.11
2022-12-28T00:26:34.585Z,13.14
2022-12-28T00:29:05.141Z,13.22
2022-12-28T00:31:34.233Z,13.26
2022-12-28T00:34:01.868Z,13.19
2022-12-28T00:37:09.572Z,13.09
2022-12-28T00:39:15.645Z,13.10
2022-12-28T00:41:42.437Z,13.01
2022-12-28T00:44:10.844Z,12.96
2022-12-28T00:46:37.842Z,12.93
2022-12-28T00:49:05.027Z,12.94
2022-12-28T00:51:33.910Z,12.92
2022-12-28T00:54:01.052Z,12.92
2022-12-28T00:56:28.102Z,12.95
2022-12-28T00:58:59.845Z,13.03
2022-12-28T01:01:28.409Z,12.95
2022-12-28T01:03:58.247Z,12.93
2022-12-28T01:06:26.054Z,12.82
2022-12-28T01:08:53.323Z,12.75
2022-12-28T01:11:23.314Z,12.90
2022-12-28T01:13:52.258Z,12.85
2022-12-28T01:16:24.901Z,12.95
2022-12-28T01:18:54.691Z,12.77
2022-12-28T01:21:24.341Z,12.91
2022-12-28T01:23:57.541Z,12.78
2022-12-28T01:26:26.089Z,12.76
2022-12-28T01:28:53.127Z,12.82
2022-12-28T01:31:21.062Z,12.84
2022-12-28T01:33:48.642Z,12.93
2022-12-28T01:36:21.433Z,12.84
2022-12-28T01:38:51.904Z,12.77
2022-12-28T01:41:20.199Z,12.76
2022-12-28T01:44:07.379Z,12.78
2022-12-28T01:46:45.662Z,12.81
2022-12-28T01:49:18.225Z,12.56
2022-12-28T01:52:01.530Z,12.48
2022-12-28T01:54:43.099Z,12.44
2022-12-28T01:57:15.225Z,12.46
2022-12-28T01:59:47.025Z,12.43
2022-12-28T02:02:15.335Z,12.25
2022-12-28T02:04:42.573Z,12.13
2022-12-28T02:07:09.863Z,12.18
2022-12-28T02:09:41.627Z,12.28
2022-12-28T02:12:17.942Z,12.28
2022-12-28T02:14:46.219Z,12.34
2022-12-28T02:17:14.603Z,12.30
2022-12-28T02:19:46.815Z,12.18
2022-12-28T02:22:51.422Z,12.22
2022-12-28T02:25:47.238Z,12.24
2022-12-28T02:28:17.094Z,12.24
2022-12-28T02:30:52.769Z,12.19
2022-12-28T02:33:40.146Z,12.27
2022-12-28T02:36:26.548Z,12.33
2022-12-28T02:39:03.571Z,12.40
2022-12-28T02:41:32.538Z,12.39
2022-12-28T02:44:00.686Z,12.41
2022-12-28T02:46:52.399Z,12.42
2022-12-28T02:49:39.230Z,12.38
2022-12-28T02:52:22.487Z,12.42
2022-12-28T02:56:03.190Z,12.44
2022-12-28T02:58:54.642Z,12.48
2022-12-28T03:01:21.632Z,12.58
2022-12-28T03:04:27.847Z,12.61
2022-12-28T03:07:26.134Z,12.65
2022-12-28T03:10:04.344Z,12.73
2022-12-28T03:12:40.727Z,12.85
2022-12-28T03:15:29.808Z,12.94
2022-12-28T03:18:19.326Z,13.00
2022-12-28T03:21:06.381Z,13.09
2022-12-28T03:23:54.003Z,13.17
2022-12-28T03:26:42.824Z,13.25
2022-12-28T03:29:33.990Z,13.33
2022-12-28T03:32:04.493Z,13.32
2022-12-28T03:34:34.276Z,13.37
2022-12-28T03:37:27.768Z,13.39
2022-12-28T03:40:02.895Z,13.40
2022-12-28T03:42:54.435Z,13.42
2022-12-28T03:45:46.184Z,13.42
2022-12-28T03:48:18.115Z,13.41
2022-12-28T03:50:48.538Z,13.42
2022-12-28T03:53:20.111Z,13.41
2022-12-28T03:55:49.343Z,13.42
2022-12-28T03:58:21.089Z,13.43
2022-12-28T04:00:49.167Z,13.40
2022-12-28T04:03:16.599Z,13.37
2022-12-28T04:05:43.668Z,13.38
2022-12-28T04:08:10.451Z,13.36
2022-12-28T04:10:37.350Z,13.34
2022-12-28T04:13:04.999Z,13.36
2022-12-28T04:15:58.148Z,13.37
2022-12-28T04:18:25.128Z,13.39
2022-12-28T04:20:52.660Z,13.40
2022-12-28T04:23:19.586Z,13.44
2022-12-28T04:25:57.705Z,13.45
2022-12-28T04:28:25.362Z,13.49
2022-12-28T04:31:24.801Z,13.50
2022-12-28T04:34:04.463Z,13.53
2022-12-28T04:36:35.402Z,13.58
2022-12-28T04:39:06.268Z,13.61
2022-12-28T04:41:33.086Z,13.60
2022-12-28T04:43:59.901Z,13.58
2022-12-28T04:46:26.794Z,13.58
2022-12-28T04:48:53.735Z,13.60
2022-12-28T04:51:23.244Z,13.62
2022-12-28T04:53:50.690Z,13.64
2022-12-28T04:56:19.913Z,13.66
2022-12-28T04:58:47.230Z,13.64
2022-12-28T05:01:19.409Z,13.63
2022-12-28T05:03:55.175Z,13.61
2022-12-28T05:06:24.527Z,13.61
2022-12-28T05:08:51.864Z,13.60
2022-12-28T05:11:21.029Z,13.62
2022-12-28T05:13:48.455Z,13.62
2022-12-28T05:16:19.584Z,13.63
2022-12-28T05:18:46.901Z,13.60
2022-12-28T05:21:19.444Z,13.60
2022-12-28T05:23:46.366Z,13.59
2022-12-28T05:26:17.133Z,13.59
2022-12-28T05:28:44.421Z,13.58
2022-12-28T05:31:14.096Z,13.51
2022-12-28T05:33:41.632Z,13.52
2022-12-28T05:36:14.051Z,13.57
2022-12-28T05:38:41.275Z,13.57
2022-12-28T05:41:16.471Z,13.56
2022-12-28T05:43:44.135Z,13.58
2022-12-28T05:46:14.215Z,13.62
2022-12-28T05:48:42.881Z,13.61
2022-12-28T05:51:12.430Z,13.56
2022-12-28T05:53:40.648Z,13.59
2022-12-28T05:56:14.457Z,13.60
2022-12-28T05:58:43.203Z,13.60
2022-12-28T06:01:18.547Z,13.61
2022-12-28T06:03:46.493Z,13.61
2022-12-28T06:06:16.573Z,13.65
2022-12-28T06:08:44.411Z,13.67
2022-12-28T06:11:14.667Z,13.66
2022-12-28T06:13:42.249Z,13.72
2022-12-28T06:16:19.028Z,13.75
2022-12-28T06:18:46.340Z,13.74
2022-12-28T06:21:19.365Z,13.77
2022-12-28T06:23:47.221Z,13.77
2022-12-28T06:26:19.839Z,13.75
2022-12-28T06:28:47.686Z,13.78
2022-12-28T06:31:16.040Z,13.79
2022-12-28T06:33:43.715Z,13.75
2022-12-28T06:36:20.462Z,13.78
2022-12-28T06:38:48.419Z,13.77
2022-12-28T06:41:15.816Z,13.72
2022-12-28T06:43:44.352Z,13.71
2022-12-28T06:46:12.753Z,13.75
2022-12-28T06:48:40.620Z,13.76
2022-12-28T06:51:11.552Z,13.75
2022-12-28T06:53:39.076Z,13.76
2022-12-28T06:56:13.523Z,13.79
2022-12-28T06:58:41.431Z,13.78
2022-12-28T07:01:34.581Z,13.74
2022-12-28T07:04:05.231Z,13.85
2022-12-28T07:06:37.155Z,13.84
2022-12-28T07:09:09.557Z,13.81
2022-12-28T07:11:36.974Z,13.80
2022-12-28T07:14:04.408Z,13.83
2022-12-28T07:19:01.130Z,13.80
2022-12-28T07:21:30.740Z,13.77
2022-12-28T07:23:58.152Z,13.78
2022-12-28T07:26:31.462Z,13.79
2022-12-28T07:29:00.585Z,13.81
2022-12-28T07:31:44.763Z,13.77
2022-12-28T07:34:14.074Z,13.76
2022-12-28T07:36:40.856Z,13.72
2022-12-28T07:39:08.068Z,13.72
2022-12-28T07:41:36.364Z,13.68
2022-12-28T07:44:05.593Z,13.69
2022-12-28T07:46:34.601Z,13.69
2022-12-28T07:49:01.797Z,13.71
2022-12-28T07:51:35.117Z,13.74
2022-12-28T07:54:03.478Z,13.70
2022-12-28T07:59:01.228Z,13.76
2022-12-28T08:01:32.047Z,13.74
2022-12-28T08:04:00.508Z,13.76
2022-12-28T08:06:28.905Z,13.77
2022-12-28T08:08:59.200Z,13.76
2022-12-28T08:11:31.944Z,13.78
2022-12-28T08:13:59.929Z,13.79
2022-12-28T08:16:29.232Z,13.88
2022-12-28T08:18:56.523Z,13.93
2022-12-28T08:21:25.374Z,13.93
2022-12-28T08:23:52.840Z,13.93
2022-12-28T08:26:32.712Z,13.95
2022-12-28T08:29:02.584Z,13.99
2022-12-28T08:31:32.644Z,14.01
2022-12-28T08:34:00.610Z,14.03
2022-12-28T08:36:27.589Z,14.05
2022-12-28T08:38:54.733Z,14.04
2022-12-28T08:41:24.418Z,14.10
2022-12-28T08:43:53.084Z,14.13
2022-12-28T08:46:22.527Z,14.18
2022-12-28T08:48:51.446Z,14.21
2022-12-28T08:51:21.719Z,14.28
2022-12-28T08:53:49.112Z,14.23
2022-12-28T08:56:19.053Z,14.21
2022-12-28T08:58:47.038Z,14.18
2022-12-28T09:01:20.279Z,14.24
2022-12-28T09:03:49.588Z,14.18
2022-12-28T09:06:20.058Z,14.17
2022-12-28T09:09:10.560Z,14.18
2022-12-28T09:11:40.500Z,14.23
2022-12-28T09:14:18.533Z,14.25
2022-12-28T09:16:49.465Z,14.21
2022-12-28T09:19:19.309Z,14.16
2022-12-28T09:21:53.315Z,14.19
2022-12-28T09:24:20.816Z,14.26
2022-12-28T09:26:47.755Z,14.26
2022-12-28T09:29:14.923Z,14.25
2022-12-28T09:31:42.749Z,14.25
2022-12-28T09:37:00.533Z,14.25
2022-12-28T09:39:27.808Z,14.25
2022-12-28T09:42:08.456Z,14.29
2022-12-28T09:44:53.866Z,14.31
2022-12-28T09:47:41.973Z,14.34
2022-12-28T09:50:28.542Z,14.35
2022-12-28T09:53:03.234Z,14.45
2022-12-28T09:55:31.717Z,14.51
2022-12-28T09:57:59.687Z,14.55
2022-12-28T10:00:46.167Z,14.58
2022-12-28T10:03:20.681Z,14.70
2022-12-28T10:05:48.118Z,14.80
2022-12-28T10:08:19.074Z,14.76
2022-12-28T10:10:49.048Z,14.79
2022-12-28T10:13:53.579Z,14.78
2022-12-28T10:16:27.074Z,14.78
2022-12-28T10:19:07.539Z,14.79
2022-12-28T10:21:35.548Z,14.79
2022-12-28T10:26:57.404Z,14.77
2022-12-28T10:29:25.664Z,14.75
2022-12-28T10:32:00.565Z,14.86
2022-12-28T10:34:33.533Z,14.83
2022-12-28T10:37:19.783Z,14.90
2022-12-28T10:39:51.215Z,15.00
2022-12-28T10:42:23.985Z,15.02
2022-12-28T10:44:51.206Z,15.07
2022-12-28T10:47:35.677Z,15.06
2022-12-28T10:52:58.435Z,15.08
2022-12-28T10:55:31.419Z,15.11
2022-12-28T10:58:35.412Z,15.13
2022-12-28T11:01:13.304Z,15.22
2022-12-28T11:03:43.700Z,15.29
2022-12-28T11:06:18.686Z,15.28
2022-12-28T11:09:02.964Z,15.29
2022-12-28T11:11:30.336Z,15.37
2022-12-28T11:14:02.384Z,15.35
2022-12-28T11:17:13.527Z,15.28
2022-12-28T11:20:08.315Z,15.15
2022-12-28T11:22:35.512Z,15.26
2022-12-28T11:25:02.911Z,15.31
2022-12-28T11:27:29.887Z,15.32
2022-12-28T11:30:02.134Z,15.32
2022-12-28T11:32:42.850Z,15.25
2022-12-28T11:35:17.981Z,15.22
2022-12-28T11:37:57.175Z,15.17
2022-12-28T11:40:48.494Z,15.09
2022-12-28T11:43:30.499Z,15.09
2022-12-28T11:46:05.433Z,14.98
2022-12-28T11:48:44.016Z,15.00
2022-12-28T11:51:20.055Z,14.94
2022-12-28T11:53:46.977Z,14.92
2022-12-28T11:56:24.553Z,14.93
2022-12-28T11:59:01.950Z,14.92
2022-12-28T12:01:33.645Z,14.91
2022-12-28T12:04:00.535Z,14.89
2022-12-28T12:06:42.515Z,14.92
2022-12-28T12:09:21.411Z,15.05
2022-12-28T12:11:51.194Z,15.25
2022-12-28T12:14:28.158Z,15.25
2022-12-28T12:20:20.943Z,15.45
2022-12-28T12:22:53.235Z,15.52
2022-12-28T12:25:39.727Z,15.53
2022-12-28T12:28:20.955Z,15.69
2022-12-28T12:30:49.120Z,15.83
2022-12-28T12:33:26.434Z,15.90
2022-12-28T12:36:17.891Z,15.84
2022-12-28T12:39:03.395Z,15.92
2022-12-28T12:42:06.993Z,15.90
2022-12-28T12:44:39.610Z,15.85
2022-12-28T12:47:09.388Z,15.86
2022-12-28T12:49:45.391Z,15.84
2022-12-28T12:52:30.850Z,15.84
2022-12-28T12:55:39.197Z,15.99
2022-12-28T12:58:27.362Z,15.99
2022-12-28T13:01:18.612Z,15.96
2022-12-28T13:03:47.431Z,15.95
2022-12-28T13:06:18.738Z,15.98
2022-12-28T13:09:00.406Z,15.98
2022-12-28T13:11:31.472Z,15.92
2022-12-28T13:13:58.417Z,15.92
2022-12-28T13:16:27.422Z,15.97
2022-12-28T13:18:57.993Z,15.94
2022-12-28T13:21:27.331Z,15.82
2022-12-28T13:23:54.982Z,15.75
2022-12-28T13:26:29.764Z,15.68
2022-12-28T13:29:01.023Z,15.64
2022-12-28T13:31:39.550Z,15.50
2022-12-28T13:34:27.681Z,15.47
2022-12-28T13:37:02.799Z,15.49
2022-12-28T13:39:41.641Z,15.49
2022-12-28T13:42:14.512Z,15.50
2022-12-28T13:44:46.162Z,15.47
2022-12-28T13:47:16.105Z,15.63
2022-12-28T13:49:59.034Z,15.72
2022-12-28T13:52:33.611Z,15.90
2022-12-28T13:55:06.325Z,16.05
2022-12-28T13:57:46.416Z,16.05
2022-12-28T14:00:19.891Z,15.98
2022-12-28T14:02:49.457Z,15.82
2022-12-28T14:05:23.711Z,15.69
2022-12-28T14:07:53.040Z,15.67
2022-12-28T14:10:20.565Z,15.68
2022-12-28T14:12:48.874Z,15.66
2022-12-28T14:15:17.492Z,15.72
2022-12-28T14:17:50.776Z,15.69
2022-12-28T14:20:18.462Z,15.77
2022-12-28T14:22:45.854Z,15.67
2022-12-28T14:25:16.242Z,15.68
2022-12-28T14:27:57.451Z,15.69
2022-12-28T14:30:28.553Z,15.57
2022-12-28T14:32:56.745Z,15.48
2022-12-28T14:35:26.453Z,15.52
2022-12-28T14:37:58.965Z,15.47
2022-12-28T14:40:43.760Z,15.43
2022-12-28T14:43:34.618Z,15.45
2022-12-28T14:46:28.531Z,15.42
2022-12-28T14:48:55.995Z,15.34
2022-12-28T14:51:26.271Z,15.29
2022-12-28T14:54:12.458Z,15.17
2022-12-28T14:56:47.637Z,15.11
2022-12-28T14:59:22.380Z,15.06
2022-12-28T15:01:49.557Z,14.97
2022-12-28T15:04:38.481Z,14.91
2022-12-28T15:07:07.833Z,14.84
2022-12-28T15:09:35.354Z,14.80
2022-12-28T15:12:09.865Z,14.79
2022-12-28T15:14:37.471Z,14.74
2022-12-28T15:17:04.802Z,14.69
2022-12-28T15:19:31.762Z,14.66
2022-12-28T15:21:58.584Z,14.61
2022-12-28T15:24:31.898Z,14.56
2022-12-28T15:27:01.503Z,14.49
2022-12-28T15:29:55.606Z,14.47
2022-12-28T15:32:15.980Z,14.43
2022-12-28T15:34:43.924Z,14.43
2022-12-28T15:37:10.930Z,14.43
2022-12-28T15:39:37.988Z,14.43
2022-12-28T15:42:05.030Z,14.50
2022-12-28T15:44:32.121Z,14.49
2022-12-28T15:47:00.356Z,14.48
2022-12-28T15:49:30.361Z,14.50
2022-12-28T15:51:57.477Z,14.54
2022-12-28T15:54:24.356Z,14.59
2022-12-28T15:56:53.304Z,14.58
2022-12-28T15:59:20.298Z,14.57
2022-12-28T16:01:48.304Z,14.57
2022-12-28T16:04:15.622Z,14.57
2022-12-28T16:06:44.972Z,14.56
2022-12-28T16:09:13.974Z,14.55
2022-12-28T16:11:41.841Z,14.60
2022-12-28T16:14:15.155Z,14.57
2022-12-28T16:16:42.766Z,14.49
2022-12-28T16:19:12.167Z,14.48
2022-12-28T16:21:39.071Z,14.47
2022-12-28T16:24:06.450Z,14.44
2022-12-28T16:26:33.800Z,14.42
2022-12-28T16:29:01.798Z,14.40
2022-12-28T16:31:30.917Z,14.45
2022-12-28T16:34:03.235Z,14.45
2022-12-28T16:36:31.866Z,14.45
2022-12-28T16:38:59.228Z,14.48
2022-12-28T16:41:28.807Z,14.44
2022-12-28T16:44:04.512Z,14.42
2022-12-28T16:49:50.828Z,14.26
2022-12-28T16:52:17.765Z,14.37
2022-12-28T16:54:44.636Z,14.37
2022-12-28T16:57:11.798Z,14.37
2022-12-28T16:59:39.024Z,14.37
2022-12-28T17:02:08.598Z,14.35
2022-12-28T17:04:35.758Z,14.34
2022-12-28T17:07:02.594Z,14.34
2022-12-28T17:09:29.927Z,14.31
2022-12-28T17:11:59.502Z,14.32
2022-12-28T17:14:37.471Z,14.31
2022-12-28T17:17:06.839Z,14.29
2022-12-28T17:19:36.494Z,14.29
2022-12-28T17:22:04.338Z,14.29
2022-12-28T17:24:31.403Z,14.33
2022-12-28T17:27:05.200Z,14.30
2022-12-28T17:29:35.178Z,14.28
2022-12-28T17:32:02.404Z,14.29
2022-12-28T17:34:29.524Z,14.28
2022-12-28T17:36:56.638Z,14.28
2022-12-28T17:39:23.628Z,14.30
2022-12-28T17:41:50.652Z,14.28
2022-12-28T17:44:18.072Z,14.29
2022-12-28T17:46:45.040Z,14.28
2022-12-28T17:49:14.629Z,14.26
2022-12-28T17:51:44.705Z,14.24
2022-12-28T17:54:13.062Z,14.23
2022-12-28T17:56:40.413Z,14.19
2022-12-28T17:59:08.384Z,14.18
2022-12-28T18:01:35.503Z,14.22
2022-12-28T18:04:02.790Z,14.24
2022-12-28T18:06:29.913Z,14.24
2022-12-28T18:08:59.848Z,14.25
2022-12-28T18:11:27.069Z,14.30
2022-12-28T18:13:56.767Z,14.24
2022-12-28T18:16:26.580Z,14.21
2022-12-28T18:18:54.113Z,14.18
2022-12-28T18:21:23.300Z,14.17
2022-12-28T18:23:52.758Z,14.23
2022-12-28T18:26:27.825Z,14.21
2022-12-28T18:28:56.255Z,14.23
2022-12-28T18:31:24.236Z,14.24
2022-12-28T18:33:51.319Z,14.25
2022-12-28T18:36:18.794Z,14.26
2022-12-28T18:38:47.689Z,14.25
2022-12-28T18:41:20.967Z,14.25
2022-12-28T18:43:48.578Z,14.26
2022-12-28T18:46:22.057Z,14.26
2022-12-28T18:48:57.665Z,14.25
2022-12-28T18:51:24.633Z,14.26
2022-12-28T18:53:51.633Z,14.26
2022-12-28T18:56:20.640Z,14.25
2022-12-28T18:58:52.948Z,14.26
2022-12-28T19:04:11.806Z,14.25
2022-12-28T19:06:41.027Z,14.25
2022-12-28T19:09:10.140Z,14.25
2022-12-28T19:11:38.546Z,14.24
2022-12-28T19:14:07.717Z,14.23
2022-12-28T19:16:35.500Z,14.21
2022-12-28T19:19:02.789Z,14.21
2022-12-28T19:21:30.995Z,14.22
2022-12-28T19:24:03.266Z,14.19
2022-12-28T19:26:31.741Z,14.17
2022-12-28T19:28:58.921Z,14.21
2022-12-28T19:31:27.608Z,14.23
2022-12-28T19:33:54.919Z,14.22
2022-12-28T19:36:22.323Z,14.22
2022-12-28T19:38:49.388Z,14.19
2022-12-28T19:41:16.912Z,14.23
2022-12-28T19:43:45.030Z,14.22
2022-12-28T19:46:41.457Z,14.21
2022-12-28T19:49:12.515Z,14.19
2022-12-28T19:51:39.632Z,14.18
2022-12-28T19:54:06.898Z,14.16
2022-12-28T19:56:34.325Z,14.15
2022-12-28T19:59:06.505Z,14.12
2022-12-28T20:01:37.272Z,14.11
2022-12-28T20:04:12.372Z,14.09
2022-12-28T20:06:43.506Z,14.10
2022-12-28T20:09:11.666Z,14.08
2022-12-28T20:11:38.999Z,14.07
2022-12-28T20:14:06.739Z,14.07
2022-12-28T20:16:36.331Z,14.04
2022-12-28T20:19:07.343Z,14.03
2022-12-28T20:21:36.474Z,14.02
2022-12-28T20:24:04.451Z,14.03
2022-12-28T20:26:37.370Z,14.03
2022-12-28T20:29:06.146Z,14.01
2022-12-28T20:31:35.438Z,14.04
2022-12-28T20:34:03.218Z,14.04
2022-12-28T20:36:32.548Z,13.99
2022-12-28T20:39:00.529Z,14.01
2022-12-28T20:41:48.847Z,13.91
2022-12-28T20:44:21.905Z,13.90
2022-12-28T20:46:49.239Z,13.89
2022-12-28T20:49:16.480Z,13.91
2022-12-28T20:51:44.169Z,13.88
2022-12-28T20:54:15.393Z,13.85
2022-12-28T20:56:45.020Z,13.89
2022-12-28T20:59:16.442Z,13.87
2022-12-28T21:01:44.070Z,13.87
2022-12-28T21:04:11.762Z,13.85
2022-12-28T21:06:38.880Z,13.88
2022-12-28T21:09:06.094Z,13.89
2022-12-28T21:11:33.429Z,13.89
2022-12-28T21:14:00.808Z,13.85
2022-12-28T21:16:27.944Z,13.82
2022-12-28T21:18:55.082Z,13.80
2022-12-28T21:21:28.581Z,13.67
2022-12-28T21:23:55.799Z,13.68
2022-12-28T21:26:22.936Z,13.66
2022-12-28T21:28:50.694Z,13.60
2022-12-28T21:31:17.897Z,13.57
2022-12-28T21:33:45.455Z,13.61
2022-12-28T21:36:16.863Z,13.63
2022-12-28T21:38:45.426Z,13.65
2022-12-28T21:41:15.397Z,13.61
2022-12-28T21:43:43.285Z,13.64
2022-12-28T21:46:14.894Z,13.64
2022-12-28T21:48:42.953Z,13.61
2022-12-28T21:51:33.852Z,13.59
2022-12-28T21:54:18.697Z,13.53
2022-12-28T21:56:49.308Z,13.47
2022-12-28T21:59:16.785Z,13.46
2022-12-28T22:02:02.487Z,13.38
2022-12-28T22:04:48.805Z,13.00
2022-12-28T22:07:19.180Z,12.88
2022-12-28T22:10:07.346Z,12.91
2022-12-28T22:12:35.194Z,13.04
2022-12-28T22:15:27.718Z,13.12
2022-12-28T22:18:00.130Z,13.26
2022-12-28T22:20:29.146Z,13.33
2022-12-28T22:22:59.032Z,13.28
2022-12-28T22:25:28.796Z,13.21
2022-12-28T22:27:56.813Z,13.24
2022-12-28T22:30:25.017Z,13.29
2022-12-28T22:32:52.420Z,13.32
2022-12-28T22:35:19.930Z,13.21
2022-12-28T22:37:47.334Z,13.28
2022-12-28T22:40:15.322Z,13.30
2022-12-28T22:42:44.394Z,13.34
2022-12-28T22:45:13.591Z,13.21
2022-12-28T22:47:41.325Z,13.05
2022-12-28T22:50:11.163Z,12.93
2022-12-28T22:52:38.318Z,12.86
2022-12-28T22:55:08.801Z,12.87
2022-12-28T22:57:35.961Z,12.91
2022-12-28T23:00:05.433Z,12.97
2022-12-28T23:02:32.634Z,13.05
2022-12-28T23:05:00.162Z,13.17
2022-12-28T23:07:27.481Z,13.22
2022-12-28T23:09:54.704Z,13.24
2022-12-28T23:12:22.075Z,13.28
2022-12-28T23:15:07.865Z,13.34
2022-12-28T23:17:34.780Z,13.39
2022-12-28T23:20:20.231Z,13.36
2022-12-28T23:23:02.283Z,13.41
2022-12-28T23:25:48.038Z,13.52
2022-12-28T23:28:16.396Z,13.42
2022-12-28T23:30:48.813Z,13.33
2022-12-28T23:33:17.860Z,13.15
2022-12-28T23:35:45.495Z,13.15
2022-12-28T23:38:12.831Z,13.18
2022-12-28T23:40:41.027Z,13.20
2022-12-28T23:43:08.413Z,13.29
2022-12-28T23:45:36.250Z,13.35
2022-12-28T23:48:04.689Z,13.29
2022-12-28T23:50:32.083Z,13.29
2022-12-28T23:52:59.383Z,13.25
2022-12-28T23:55:26.861Z,13.20
2022-12-28T23:57:53.917Z,13.24
